Shizuoka Airport

Current Flights

Info
Name: Shizuoka Airport
Identifier:  FSZ/RJNS
Local Time:  23. May 00:22
City
Shizuoka
  Japan

Flights per Day
22 flights
Distance: 943km (586mi)
Punctuality
87% (2 flights per day delayed)
Delay Average: 27 minutes
Current Weather
  0kt from variable
  9km (6 mi.)
 METAR RJNS 221200Z VRB02KT 9999 FEW025 BKN/// 17/14 Q1008

Current Delays

Departures
0% delays
1 min. average
Arrivals
0% delays
2 min. average

Destinations

Top Destinations
Airport Flights
per week
Seats
per week
  Fukuoka (FUK) 49 3,605 7 515
  Shanghai (PVG) 14 2,555 2 365
  Sapporo (CTS) 7 2,051 1 293
  Kitakyushu (KKJ) 7 763 1 109
  Izumo (IZO) 7 665 1 95
  Sapporo (OKD) 7 763 1 109
  Seoul (ICN) 7 1,484 1 212
  Hangzhou (HGH) 7 1,169 1 167

Airlines & Planes

Top Airlines
Airline Flights
per Day
Seats
per Day
  FDA - Fuji Dream Airlines 13 890
  All Nippon Airways 3 587
  China Eastern Airlines 3 550
Air Seoul <1 149
  China United Airlines <1 100
  China Airlines <1 100
  Capital Airlines <1 72
Top Plane Types
Manufacturer Model Flights Seats
Embraer E175 8.0/day 588/day 588
Boeing B737-800 5.6/day 851/day 851.2666666666667
Embraer E175 3.6/day 302/day 302.4
Airbus A321 2.8/day 510/day 510.93333333333334
Airbus A320 1.7/day 262/day 262